• Join FlightAware (Why Join?)
  • Login
  • US Flag 
06:28PM EDT


 

Airport Tracker/Info


-or-


 

Live Flight TrackerFlight Track Log ✈ N53NW ✈ 06-May-2013 ✈ KTZR - KBTL

Flight Track Log - Related Links

Times and Time Zones

All times are in EDT time to prevent confusion due to time zone crossing. See the N53NW flight status page for this flight to view local times or setup timezone preferences in your user account.

Time Position Orientation Groundspeed Altitude Reporting Facility
EDT Latitude Longitude Course Direction KTS MPH feet Rate Location/Type
07:25AM 39.9639 -83.1369 327° Northwest 232 267 2,900  Level Indianapolis Center
07:26AM 40.0092 -83.1753 327° Northwest 252 290 4,100 2,340 Climbing Indianapolis Center
07:27AM 40.0744 -83.2308 327° Northwest 275 316 7,300 3,000 Climbing Indianapolis Center
07:28AM 40.1431 -83.2914 326° Northwest 295 339 10,200 2,880 Climbing Indianapolis Center
07:29AM 40.2156 -83.3536 327° Northwest 309 356 13,200 2,880 Climbing Indianapolis Center
07:30AM 40.2847 -83.4144 326° Northwest 301 346 16,100 2,700 Climbing Indianapolis Center
07:31AM 40.3536 -83.4747 326° Northwest 297 342 18,800 1,860 Climbing Indianapolis Center
07:32AM 40.4258 -83.5378 326° Northwest 309 356 20,000 540 Climbing Indianapolis Center
07:33AM 40.5094 -83.6111 326° Northwest 356 410 20,000  Level Indianapolis Center
07:34AM 40.6097 -83.6992 326° Northwest 368 423 20,000  Level Indianapolis Center
07:35AM 40.6958 -83.7758 326° Northwest 369 425 20,000  Level Indianapolis Center
07:36AM 40.7811 -83.8519 326° Northwest 366 421 20,000  Level Indianapolis Center
07:37AM 40.8658 -83.9267 326° Northwest 363 418 20,000  Level Indianapolis Center
07:38AM 40.9489 -84.0008 326° Northwest 361 415 20,000  Level Indianapolis Center
07:39AM 41.0322 -84.0764 326° Northwest 361 415 20,000  Level Indianapolis Center
07:40AM 41.1156 -84.1500 326° Northwest 358 412 20,000  Level Indianapolis Center
07:41AM 41.1392 -84.1725 324° Northwest 359 413 20,000  Level Chicago Center
07:42AM 41.2219 -84.2467 326° Northwest 359 413 20,000  Level Chicago Center
07:43AM 41.3044 -84.3222 325° Northwest 361 415 20,000  Level Chicago Center
07:44AM 41.3864 -84.3958 326° Northwest 358 412 20,000 -240 Level Chicago Center
07:45AM 41.4525 -84.4567 325° Northwest 363 418 19,600 -1,380 Descending Cleveland Center
07:46AM 41.5353 -84.5308 326° Northwest 368 423 17,800 -1,740 Descending Cleveland Center
07:47AM 41.6100 -84.6022 324° Northwest 356 410 16,100 -1,740 Descending Cleveland Center
07:49AM 41.7897 -84.7664 326° Northwest 328 377 11,800 -1,560 Descending Chicago Center
07:50AM 41.8631 -84.8333 326° Northwest 324 373 10,800 -1,620 Descending Chicago Center
07:51AM 41.9314 -84.8983 325° Northwest 310 357 8,500 -2,400 Descending Chicago Center
07:52AM 41.9978 -84.9889 315° West 291 335 5,900 -1,500 Descending Chicago Center
07:54AM 42.1043 -85.0630 333° Northwest  Level FlightAware Approximate
07:55AM 42.1458 -85.2078 324° Northwest 263 303 2,500  Level Chicago Center
07:56AM 42.1953 -85.2800 313° West 263 303 2,500 -60 Level Chicago Center
07:57AM 42.2419 -85.3208 327° Northwest 217 250 2,400 -480 Descending Chicago Center
07:58AM 42.2725 -85.2936 33° Northeast 134 154 1,600 -660 Descending Chicago Center
07:59AM 42.2972 -85.2617 44° Northeast 121 139 1,100 -540 Descending Chicago Center
08:01AM 42.3000 -85.2500 324° Northwest  Level FlightAware Approximate